Terminal Aerodrome Forecast
Issued by NWS Tuscon, AZ

Home | Current Version | Previous Version | Text Only | Print | Product List | Glossary On
Versions: 1 2 3 4 5 6 7 8 9 10 11 12 13
728
FTUS45 KTWC 251739
TAFTUS
TAF
KTUS 251739Z 2518/2618 VRB04KT P6SM FEW100 SCT150
     FM252000 32011G17KT P6SM SCT090 SCT150
     FM260300 35010KT P6SM FEW080 SCT120
     FM260800 16007KT P6SM SCT120=

USA.gov is the U.S. government's official web portal to all federal, state and local government web resources and services.